createdAt,value
2023-02-14T00:00:49.096Z,81.81
2023-02-14T00:03:16.239Z,82.06
2023-02-14T00:05:43.207Z,82.04
2023-02-14T00:08:10.155Z,81.78
2023-02-14T00:10:37.177Z,82.00
2023-02-14T00:13:05.087Z,82.15
2023-02-14T00:15:31.868Z,82.20
2023-02-14T00:18:02.277Z,81.91
2023-02-14T00:20:29.440Z,82.17
2023-02-14T00:22:56.299Z,82.25
2023-02-14T00:25:23.261Z,81.84
2023-02-14T00:27:50.271Z,82.07
2023-02-14T00:30:17.329Z,82.09
2023-02-14T00:32:44.381Z,81.83
2023-02-14T00:35:11.710Z,82.35
2023-02-14T00:37:41.048Z,81.82
2023-02-14T00:40:08.531Z,81.95
2023-02-14T00:42:35.392Z,82.27
2023-02-14T00:45:02.409Z,82.26
2023-02-14T00:47:29.306Z,82.12
2023-02-14T00:49:56.266Z,82.27
2023-02-14T00:52:25.631Z,82.45
2023-02-14T00:54:52.611Z,81.95
2023-02-14T00:57:19.406Z,82.23
2023-02-14T00:59:46.317Z,82.43
2023-02-14T01:02:13.228Z,82.54
2023-02-14T01:04:40.194Z,81.98
2023-02-14T01:07:07.032Z,82.04
2023-02-14T01:09:35.188Z,82.45
2023-02-14T01:12:02.431Z,82.25
2023-02-14T01:14:29.341Z,82.22
2023-02-14T01:16:56.260Z,82.34
2023-02-14T01:19:24.649Z,82.22
2023-02-14T01:21:51.511Z,82.42
2023-02-14T01:24:18.352Z,82.28
2023-02-14T01:26:45.268Z,82.52
2023-02-14T01:29:12.093Z,82.39
2023-02-14T01:31:39.209Z,82.16
2023-02-14T01:34:06.292Z,82.63
2023-02-14T01:36:36.964Z,82.37
2023-02-14T01:39:12.525Z,82.48
2023-02-14T01:41:41.608Z,82.25
2023-02-14T01:44:48.237Z,82.29
2023-02-14T01:47:16.036Z,82.44
2023-02-14T01:49:48.178Z,82.32
2023-02-14T01:52:30.218Z,82.50
2023-02-14T01:55:13.201Z,82.57
2023-02-14T01:57:48.253Z,82.72
2023-02-14T02:00:36.746Z,82.36
2023-02-14T02:03:05.616Z,82.38
2023-02-14T02:05:32.612Z,82.68
2023-02-14T02:08:00.772Z,82.24
2023-02-14T02:10:28.343Z,82.41
2023-02-14T02:12:55.443Z,82.46
2023-02-14T02:15:24.358Z,82.75
2023-02-14T02:18:27.240Z,82.71
2023-02-14T02:21:16.122Z,82.49
2023-02-14T02:24:08.123Z,82.67
2023-02-14T02:27:15.043Z,82.66
2023-02-14T02:30:21.770Z,82.53
2023-02-14T02:33:28.564Z,82.63
2023-02-14T02:36:18.786Z,82.61
2023-02-14T02:39:25.455Z,82.42
2023-02-14T02:42:18.266Z,82.59
2023-02-14T02:44:54.603Z,82.71
2023-02-14T02:47:33.643Z,82.98
2023-02-14T02:50:38.696Z,82.63
2023-02-14T02:53:34.314Z,82.89
2023-02-14T02:56:28.143Z,82.72
2023-02-14T02:59:00.776Z,82.53
2023-02-14T03:01:34.227Z,82.66
2023-02-14T03:04:24.259Z,82.60
2023-02-14T03:06:51.967Z,82.72
2023-02-14T03:09:57.698Z,82.61
2023-02-14T03:12:47.961Z,82.62
2023-02-14T03:15:42.474Z,82.61
2023-02-14T03:18:46.513Z,82.58
2023-02-14T03:21:29.119Z,82.65
2023-02-14T03:24:19.773Z,82.57
2023-02-14T03:26:54.638Z,82.56
2023-02-14T03:29:44.379Z,82.64
2023-02-14T03:32:39.103Z,82.60
2023-02-14T03:35:28.597Z,82.79
2023-02-14T03:38:18.044Z,82.69
2023-02-14T03:40:54.638Z,82.76
2023-02-14T03:43:26.843Z,82.51
2023-02-14T03:46:15.572Z,82.70
2023-02-14T03:48:42.938Z,82.56
2023-02-14T03:51:12.253Z,82.61
2023-02-14T03:53:43.577Z,82.65
2023-02-14T03:56:34.524Z,82.61
2023-02-14T03:59:07.765Z,82.78
2023-02-14T04:01:45.111Z,82.69
2023-02-14T04:04:14.966Z,82.77
2023-02-14T04:06:41.857Z,82.78
2023-02-14T04:09:08.637Z,82.68
2023-02-14T04:11:35.760Z,82.76
2023-02-14T04:14:03.309Z,82.80
2023-02-14T04:16:30.237Z,82.75
2023-02-14T04:19:16.980Z,82.83
2023-02-14T04:21:43.995Z,82.64
2023-02-14T04:24:10.859Z,82.89
2023-02-14T04:26:37.754Z,82.99
2023-02-14T04:29:04.579Z,82.92
2023-02-14T04:31:31.642Z,82.62
2023-02-14T04:33:58.525Z,82.76
2023-02-14T04:36:25.354Z,82.79
2023-02-14T04:38:52.138Z,82.87
2023-02-14T04:41:19.064Z,82.78
2023-02-14T04:43:45.878Z,82.72
2023-02-14T04:46:13.475Z,82.88
2023-02-14T04:48:40.394Z,82.78
2023-02-14T04:51:07.297Z,82.83
2023-02-14T04:53:40.176Z,82.85
2023-02-14T04:56:08.356Z,83.00
2023-02-14T04:58:35.434Z,82.81
2023-02-14T05:01:02.821Z,82.88
2023-02-14T05:03:29.881Z,82.81
2023-02-14T05:05:56.763Z,82.90
2023-02-14T05:08:23.615Z,82.69
2023-02-14T05:10:50.576Z,82.91
2023-02-14T05:13:49.511Z,82.81
2023-02-14T05:19:38.393Z,82.75
2023-02-14T05:22:05.459Z,82.81
2023-02-14T05:24:32.278Z,82.72
2023-02-14T05:26:59.193Z,82.88
2023-02-14T05:29:26.132Z,83.02
2023-02-14T05:31:53.554Z,82.83
2023-02-14T05:34:21.784Z,82.99
2023-02-14T05:36:48.806Z,82.85
2023-02-14T05:39:15.738Z,83.12
2023-02-14T05:41:42.550Z,82.85
2023-02-14T05:44:09.552Z,82.99
2023-02-14T05:46:36.476Z,83.04
2023-02-14T05:49:03.800Z,83.03
2023-02-14T05:51:30.813Z,82.99
2023-02-14T05:54:00.099Z,82.95
2023-02-14T05:56:27.530Z,82.90
2023-02-14T05:58:54.333Z,83.23
2023-02-14T06:01:21.438Z,82.90
2023-02-14T06:03:48.343Z,83.31
2023-02-14T06:06:15.236Z,83.04
2023-02-14T06:08:42.220Z,83.19
2023-02-14T06:11:09.039Z,83.16
2023-02-14T06:13:35.927Z,83.39
2023-02-14T06:16:04.579Z,83.10
2023-02-14T06:18:31.467Z,83.10
2023-02-14T06:20:58.804Z,83.18
2023-02-14T06:23:26.205Z,83.43
2023-02-14T06:25:53.109Z,83.42
2023-02-14T06:28:20.072Z,83.25
2023-02-14T06:30:47.749Z,83.38
2023-02-14T06:33:14.790Z,83.37
2023-02-14T06:35:41.798Z,83.43
2023-02-14T06:38:08.765Z,83.17
2023-02-14T06:40:35.624Z,83.18
2023-02-14T06:43:02.721Z,83.55
2023-02-14T06:45:29.574Z,83.43
2023-02-14T06:47:56.539Z,83.46
2023-02-14T06:50:23.436Z,83.40
2023-02-14T06:52:51.476Z,83.59
2023-02-14T06:55:18.958Z,83.64
2023-02-14T06:57:45.877Z,83.60
2023-02-14T07:00:15.005Z,83.60
2023-02-14T07:02:42.519Z,83.41
2023-02-14T07:05:09.438Z,83.49
2023-02-14T07:07:36.542Z,83.65
2023-02-14T07:10:03.571Z,83.50
2023-02-14T07:12:30.556Z,83.46
2023-02-14T07:14:57.615Z,83.66
2023-02-14T07:17:24.604Z,83.47
2023-02-14T07:19:51.501Z,83.62
2023-02-14T07:22:18.383Z,83.70
2023-02-14T07:24:45.394Z,83.63
2023-02-14T07:27:12.351Z,83.59
2023-02-14T07:29:39.282Z,83.37
2023-02-14T07:32:06.456Z,83.64
2023-02-14T07:34:33.634Z,83.56
2023-02-14T07:37:01.131Z,83.49
2023-02-14T07:39:28.457Z,83.45
2023-02-14T07:41:55.500Z,83.55
2023-02-14T07:44:23.373Z,83.78
2023-02-14T07:46:50.353Z,83.68
2023-02-14T07:49:17.611Z,83.60
2023-02-14T07:51:44.673Z,83.87
2023-02-14T07:54:11.695Z,83.70
2023-02-14T07:56:38.630Z,83.66
2023-02-14T07:59:05.591Z,83.61
2023-02-14T08:01:32.768Z,83.42
2023-02-14T08:03:59.748Z,83.65
2023-02-14T08:06:28.063Z,83.77
2023-02-14T08:08:55.050Z,83.55
2023-02-14T08:11:41.975Z,83.41
2023-02-14T08:14:09.035Z,83.67
2023-02-14T08:16:36.105Z,83.78
2023-02-14T08:19:03.413Z,83.32
2023-02-14T08:21:30.758Z,83.65
2023-02-14T08:23:57.882Z,83.55
2023-02-14T08:26:25.273Z,83.42
2023-02-14T08:28:52.307Z,83.45
2023-02-14T08:31:34.997Z,83.24
2023-02-14T08:34:04.815Z,83.27
2023-02-14T08:36:31.925Z,83.42
2023-02-14T08:38:58.889Z,83.23
2023-02-14T08:41:26.066Z,83.36
2023-02-14T08:43:53.599Z,83.69
2023-02-14T08:46:20.745Z,83.04
2023-02-14T08:48:49.787Z,83.32
2023-02-14T08:51:17.282Z,83.08
2023-02-14T08:53:44.189Z,83.11
2023-02-14T08:56:13.514Z,83.26
2023-02-14T08:58:40.997Z,83.36
2023-02-14T09:01:12.722Z,82.98
2023-02-14T09:03:40.026Z,82.62
2023-02-14T09:06:09.540Z,82.96
2023-02-14T09:08:37.686Z,83.11
2023-02-14T09:11:09.875Z,82.90
2023-02-14T09:13:37.025Z,83.02
2023-02-14T09:16:08.478Z,82.64
2023-02-14T09:18:35.630Z,82.82
2023-02-14T09:21:03.870Z,82.91
2023-02-14T09:23:30.889Z,82.38
2023-02-14T09:26:02.507Z,82.61
2023-02-14T09:28:29.580Z,82.67
2023-02-14T09:30:57.287Z,82.68
2023-02-14T09:33:28.165Z,82.54
2023-02-14T09:36:15.210Z,82.10
2023-02-14T09:38:42.220Z,82.03
2023-02-14T09:41:10.332Z,82.32
2023-02-14T09:43:51.234Z,82.43
2023-02-14T09:46:19.180Z,82.48
2023-02-14T09:48:47.617Z,82.53
2023-02-14T09:51:18.509Z,82.40
2023-02-14T09:53:49.449Z,81.67
2023-02-14T09:56:50.783Z,82.06
2023-02-14T09:59:47.288Z,81.49
2023-02-14T10:02:38.344Z,81.89
2023-02-14T10:05:22.694Z,81.86
2023-02-14T10:08:29.448Z,81.71
2023-02-14T10:11:12.106Z,81.46
2023-02-14T10:13:49.867Z,81.32
2023-02-14T10:16:29.627Z,80.89
2023-02-14T10:19:05.595Z,81.37
2023-02-14T10:21:38.397Z,81.34
2023-02-14T10:24:12.248Z,81.39
2023-02-14T10:26:41.436Z,80.95
2023-02-14T10:29:16.628Z,81.19
2023-02-14T10:32:04.298Z,81.09
2023-02-14T10:34:51.729Z,81.09
2023-02-14T10:37:48.509Z,80.34
2023-02-14T10:40:40.815Z,80.09
2023-02-14T10:43:47.688Z,80.15
2023-02-14T10:46:32.495Z,80.47
2023-02-14T10:49:08.628Z,79.86
2023-02-14T10:51:41.023Z,79.94
2023-02-14T10:54:29.250Z,80.33
2023-02-14T10:57:02.347Z,80.32
2023-02-14T10:59:53.554Z,80.00
2023-02-14T11:02:25.193Z,80.01
2023-02-14T11:04:52.733Z,79.72
2023-02-14T11:07:21.781Z,79.33
2023-02-14T11:09:48.938Z,79.76
2023-02-14T11:12:37.633Z,79.33
2023-02-14T11:15:26.017Z,79.64
2023-02-14T11:18:36.387Z,79.32
2023-02-14T11:21:27.990Z,79.44
2023-02-14T11:23:55.090Z,79.63
2023-02-14T11:26:27.439Z,79.31
2023-02-14T11:28:58.508Z,79.31
2023-02-14T11:31:37.345Z,79.57
2023-02-14T11:34:32.130Z,78.95
2023-02-14T11:36:59.811Z,79.32
2023-02-14T11:39:35.980Z,79.45
2023-02-14T11:42:05.387Z,79.34
2023-02-14T11:44:36.881Z,78.59
2023-02-14T11:47:28.215Z,78.98
2023-02-14T11:49:58.094Z,78.50
2023-02-14T11:52:29.086Z,78.78
2023-02-14T11:54:57.650Z,78.96
2023-02-14T11:57:32.473Z,78.50
2023-02-14T12:00:02.338Z,78.49
2023-02-14T12:02:41.754Z,78.36
2023-02-14T12:05:21.954Z,78.71
2023-02-14T12:07:51.238Z,78.67
2023-02-14T12:10:28.754Z,78.25
2023-02-14T12:13:20.893Z,78.40
2023-02-14T12:15:50.375Z,78.79
2023-02-14T12:18:43.642Z,78.62
2023-02-14T12:21:39.772Z,78.31
2023-02-14T12:24:35.759Z,78.21
2023-02-14T12:27:26.492Z,77.96
2023-02-14T12:30:07.395Z,77.83
2023-02-14T12:32:34.942Z,78.45
2023-02-14T12:35:42.290Z,78.56
2023-02-14T12:38:49.067Z,78.46
2023-02-14T12:41:35.387Z,78.44
2023-02-14T12:44:21.687Z,77.70
2023-02-14T12:47:12.951Z,77.71
2023-02-14T12:50:03.821Z,77.95
2023-02-14T12:53:10.674Z,78.27
2023-02-14T12:56:07.274Z,77.69
2023-02-14T12:58:57.610Z,77.51
2023-02-14T13:02:04.522Z,77.60
2023-02-14T13:04:58.011Z,77.96
2023-02-14T13:07:39.583Z,77.90
2023-02-14T13:10:19.319Z,77.90
2023-02-14T13:13:09.675Z,78.10
2023-02-14T13:15:59.856Z,77.83
2023-02-14T13:18:38.433Z,77.88
2023-02-14T13:21:09.519Z,78.00
2023-02-14T13:23:42.634Z,77.63
2023-02-14T13:26:18.895Z,78.11
2023-02-14T13:28:52.015Z,77.49
2023-02-14T13:31:20.339Z,77.87
2023-02-14T13:33:55.019Z,78.26
2023-02-14T13:36:22.728Z,77.86
2023-02-14T13:38:52.248Z,77.80
2023-02-14T13:41:20.626Z,77.84
2023-02-14T13:44:02.788Z,78.13
2023-02-14T13:46:51.121Z,77.36
2023-02-14T13:49:26.288Z,77.42
2023-02-14T13:51:55.509Z,77.89
2023-02-14T13:54:37.231Z,77.51
2023-02-14T13:57:31.832Z,77.65
2023-02-14T14:00:23.506Z,77.52
2023-02-14T14:02:52.509Z,77.97
2023-02-14T14:05:47.749Z,77.40
2023-02-14T14:08:35.624Z,77.25
2023-02-14T14:11:06.210Z,77.57
2023-02-14T14:14:01.710Z,77.88
2023-02-14T14:16:35.145Z,77.16
2023-02-14T14:19:23.550Z,77.83
2023-02-14T14:22:10.808Z,77.37
2023-02-14T14:24:39.587Z,77.64
2023-02-14T14:27:14.648Z,77.26
2023-02-14T14:29:50.729Z,77.40
2023-02-14T14:32:34.196Z,77.10
2023-02-14T14:35:19.140Z,77.61
2023-02-14T14:37:55.055Z,77.55
2023-02-14T14:40:30.166Z,77.63
2023-02-14T14:43:05.712Z,77.08
2023-02-14T14:45:32.972Z,77.58
2023-02-14T14:48:09.710Z,77.69
2023-02-14T14:50:37.030Z,77.42
2023-02-14T14:53:11.949Z,77.25
2023-02-14T14:55:42.672Z,77.44
2023-02-14T14:58:29.833Z,77.52
2023-02-14T15:00:56.743Z,77.02
2023-02-14T15:03:26.189Z,77.16
2023-02-14T15:06:04.088Z,77.29
2023-02-14T15:08:33.154Z,77.37
2023-02-14T15:11:14.675Z,77.30
2023-02-14T15:13:57.501Z,77.38
2023-02-14T15:16:28.847Z,76.93
2023-02-14T15:19:09.427Z,77.34
2023-02-14T15:21:36.420Z,77.50
2023-02-14T15:24:03.590Z,77.04
2023-02-14T15:26:32.571Z,77.24
2023-02-14T15:29:05.183Z,77.53
2023-02-14T15:31:35.842Z,77.02
2023-02-14T15:34:04.907Z,77.35
2023-02-14T15:36:33.041Z,77.23
2023-02-14T15:39:06.383Z,77.24
2023-02-14T15:41:33.381Z,77.38
2023-02-14T15:44:00.322Z,77.46
2023-02-14T15:46:47.107Z,77.49
2023-02-14T15:49:20.820Z,77.39
2023-02-14T15:51:49.323Z,77.12
2023-02-14T15:54:38.592Z,77.31
2023-02-14T15:57:07.242Z,77.63
2023-02-14T15:59:36.526Z,77.51
2023-02-14T16:02:27.661Z,77.47
2023-02-14T16:04:55.071Z,77.73
2023-02-14T16:07:25.919Z,77.44
2023-02-14T16:10:32.634Z,77.25
2023-02-14T16:13:04.214Z,77.48
2023-02-14T16:15:33.632Z,77.37
2023-02-14T16:18:06.988Z,77.48
2023-02-14T16:20:45.839Z,77.32
2023-02-14T16:23:25.811Z,77.35
2023-02-14T16:25:53.607Z,77.63
2023-02-14T16:28:21.078Z,77.74
2023-02-14T16:30:54.896Z,77.46
2023-02-14T16:33:28.333Z,77.55
2023-02-14T16:35:58.599Z,77.36
2023-02-14T16:38:25.473Z,77.47
2023-02-14T16:40:54.361Z,77.61
2023-02-14T16:43:21.973Z,77.88
2023-02-14T16:45:48.855Z,77.86
2023-02-14T16:48:16.112Z,77.72
2023-02-14T16:50:43.574Z,77.60
2023-02-14T16:53:25.181Z,77.79
2023-02-14T16:55:53.831Z,77.76
2023-02-14T16:58:23.806Z,77.51
2023-02-14T17:00:50.751Z,77.79
2023-02-14T17:03:17.616Z,77.72
2023-02-14T17:05:44.475Z,77.86
2023-02-14T17:08:12.680Z,77.76
2023-02-14T17:10:40.718Z,77.98
2023-02-14T17:13:08.172Z,77.88
2023-02-14T17:15:35.763Z,77.92
2023-02-14T17:18:05.439Z,77.85
2023-02-14T17:20:32.452Z,77.89
2023-02-14T17:22:59.673Z,77.77
2023-02-14T17:25:26.634Z,77.93
2023-02-14T17:27:53.650Z,78.02
2023-02-14T17:30:20.588Z,77.87
2023-02-14T17:32:49.643Z,78.00
2023-02-14T17:35:16.877Z,78.05
2023-02-14T17:37:43.917Z,77.96
2023-02-14T17:40:11.857Z,77.91
2023-02-14T17:42:38.936Z,77.66
2023-02-14T17:45:11.869Z,77.97
2023-02-14T17:47:40.623Z,78.01
2023-02-14T17:50:08.093Z,78.10
2023-02-14T17:52:35.056Z,77.88
2023-02-14T17:55:02.044Z,77.82
2023-02-14T17:57:28.950Z,78.15
2023-02-14T17:59:55.853Z,78.04
2023-02-14T18:02:22.736Z,78.11
2023-02-14T18:04:49.676Z,78.06
2023-02-14T18:07:16.703Z,78.13
2023-02-14T18:09:43.682Z,78.02
2023-02-14T18:12:14.772Z,78.15
2023-02-14T18:14:42.089Z,78.27
2023-02-14T18:17:09.160Z,78.07
2023-02-14T18:19:36.122Z,78.26
2023-02-14T18:22:03.019Z,78.20
2023-02-14T18:24:29.839Z,78.18
2023-02-14T18:26:56.716Z,78.22
2023-02-14T18:29:24.594Z,78.19
2023-02-14T18:31:51.773Z,77.96
2023-02-14T18:34:18.821Z,78.32
2023-02-14T18:36:45.759Z,78.21
2023-02-14T18:39:12.815Z,78.32
2023-02-14T18:41:39.819Z,78.06
2023-02-14T18:44:10.029Z,78.25
2023-02-14T18:46:40.223Z,78.25
2023-02-14T18:49:08.579Z,78.10
2023-02-14T18:51:39.542Z,78.10
2023-02-14T18:54:07.355Z,78.23
2023-02-14T18:56:38.661Z,78.32
2023-02-14T18:59:09.677Z,78.22
2023-02-14T19:01:40.042Z,78.20
2023-02-14T19:04:16.181Z,78.31
2023-02-14T19:06:46.705Z,78.05
2023-02-14T19:09:18.075Z,78.35
2023-02-14T19:11:46.393Z,78.39
2023-02-14T19:14:14.117Z,78.30
2023-02-14T19:16:50.308Z,78.21
2023-02-14T19:19:18.779Z,78.15
2023-02-14T19:21:46.758Z,78.26
2023-02-14T19:24:16.923Z,78.18
2023-02-14T19:26:45.068Z,78.05
2023-02-14T19:29:14.476Z,78.37
2023-02-14T19:31:45.558Z,78.20
2023-02-14T19:34:19.963Z,78.21
2023-02-14T19:36:49.270Z,78.24
2023-02-14T19:39:17.430Z,78.16
2023-02-14T19:41:44.313Z,78.03
2023-02-14T19:44:13.933Z,78.15
2023-02-14T19:46:42.497Z,78.25
2023-02-14T19:49:14.444Z,78.23
2023-02-14T19:51:41.903Z,78.41
2023-02-14T19:54:12.872Z,78.09
2023-02-14T19:56:43.206Z,78.15
2023-02-14T19:59:10.936Z,78.42
2023-02-14T20:01:50.419Z,78.24
2023-02-14T20:04:20.465Z,78.28
2023-02-14T20:06:49.824Z,78.17
2023-02-14T20:09:17.816Z,78.29
2023-02-14T20:11:50.000Z,78.33
2023-02-14T20:14:23.463Z,78.40
2023-02-14T20:16:51.235Z,78.06
2023-02-14T20:19:21.169Z,78.33
2023-02-14T20:21:50.017Z,78.24
2023-02-14T20:24:20.955Z,78.31
2023-02-14T20:26:48.642Z,78.26
2023-02-14T20:29:17.299Z,78.21
2023-02-14T20:31:50.045Z,78.20
2023-02-14T20:34:22.721Z,78.33
2023-02-14T20:36:53.563Z,78.14
2023-02-14T20:39:21.787Z,78.09
2023-02-14T20:41:51.970Z,78.19
2023-02-14T20:44:22.396Z,78.26
2023-02-14T20:46:51.851Z,78.17
2023-02-14T20:49:19.877Z,78.25
2023-02-14T20:51:49.786Z,78.07
2023-02-14T20:54:18.301Z,78.37
2023-02-14T20:56:47.143Z,78.15
2023-02-14T20:59:14.267Z,78.25
2023-02-14T21:01:41.166Z,78.09
2023-02-14T21:04:08.320Z,78.19
2023-02-14T21:06:38.953Z,78.05
2023-02-14T21:09:06.970Z,78.12
2023-02-14T21:11:33.889Z,78.14
2023-02-14T21:14:01.655Z,77.93
2023-02-14T21:16:30.266Z,78.15
2023-02-14T21:19:01.769Z,78.10
2023-02-14T21:21:36.465Z,78.06
2023-02-14T21:24:06.932Z,77.88
2023-02-14T21:26:34.335Z,78.03
2023-02-14T21:29:01.782Z,78.21
2023-02-14T21:31:28.958Z,78.04
2023-02-14T21:33:57.509Z,78.01
2023-02-14T21:36:26.048Z,77.78
2023-02-14T21:38:55.181Z,77.99
2023-02-14T21:41:23.801Z,77.94
2023-02-14T21:43:53.156Z,78.06
2023-02-14T21:46:44.170Z,78.12
2023-02-14T21:49:32.585Z,78.01
2023-02-14T21:52:02.058Z,77.94
2023-02-14T21:54:28.913Z,77.97
2023-02-14T21:56:55.933Z,78.18
2023-02-14T21:59:22.957Z,77.91
2023-02-14T22:01:49.893Z,77.85
2023-02-14T22:04:16.803Z,77.89
2023-02-14T22:06:43.762Z,77.67
2023-02-14T22:09:14.843Z,77.87
2023-02-14T22:11:42.721Z,77.82
2023-02-14T22:14:09.699Z,77.63
2023-02-14T22:16:38.175Z,77.75
2023-02-14T22:19:08.943Z,77.55
2023-02-14T22:21:35.846Z,77.79
2023-02-14T22:24:02.756Z,77.79
2023-02-14T22:26:38.812Z,78.03
2023-02-14T22:29:05.787Z,77.67
2023-02-14T22:31:38.115Z,77.74
2023-02-14T22:34:06.600Z,77.63
2023-02-14T22:36:34.692Z,77.36
2023-02-14T22:39:01.737Z,77.73
2023-02-14T22:41:28.652Z,77.83
2023-02-14T22:43:55.915Z,77.61
2023-02-14T22:46:25.672Z,77.67
2023-02-14T22:48:53.478Z,77.80
2023-02-14T22:51:35.255Z,77.45
2023-02-14T22:54:08.113Z,77.53
2023-02-14T22:56:38.825Z,77.33
2023-02-14T22:59:09.109Z,77.39
2023-02-14T23:01:36.144Z,77.73
2023-02-14T23:04:04.245Z,77.17
2023-02-14T23:06:32.578Z,77.46
2023-02-14T23:08:59.511Z,77.54
2023-02-14T23:11:28.774Z,77.28
2023-02-14T23:14:16.072Z,77.43
2023-02-14T23:17:03.310Z,77.32
2023-02-14T23:19:51.797Z,77.31
2023-02-14T23:22:20.637Z,77.28
2023-02-14T23:24:48.552Z,77.21
2023-02-14T23:27:16.611Z,77.39
2023-02-14T23:29:43.471Z,77.29
2023-02-14T23:32:10.328Z,77.18
2023-02-14T23:34:39.591Z,77.38
2023-02-14T23:37:07.155Z,77.18
2023-02-14T23:39:36.689Z,77.31
2023-02-14T23:42:05.506Z,77.26
2023-02-14T23:44:33.352Z,77.14
2023-02-14T23:47:03.139Z,76.96
2023-02-14T23:49:31.755Z,77.32
2023-02-14T23:51:59.003Z,77.12
2023-02-14T23:54:26.123Z,77.18
2023-02-14T23:56:53.552Z,77.13
2023-02-14T23:59:21.201Z,77.05
